sensor_id;sensor_type;location;lat;lon;timestamp;pressure;altitude;pressure_sealevel;temperature
59339;BMP280;45117;50.960;5.500;2023-04-27T00:00:30;101075.72;;;4.86
59339;BMP280;45117;50.960;5.500;2023-04-27T00:02:56;101078.19;;;4.79
59339;BMP280;45117;50.960;5.500;2023-04-27T00:05:23;101078.19;;;4.79
59339;BMP280;45117;50.960;5.500;2023-04-27T00:07:49;101083.84;;;4.78
59339;BMP280;45117;50.960;5.500;2023-04-27T00:10:17;101084.13;;;4.73
59339;BMP280;45117;50.960;5.500;2023-04-27T00:12:44;101083.84;;;4.62
59339;BMP280;45117;50.960;5.500;2023-04-27T00:15:10;101078.63;;;4.66
59339;BMP280;45117;50.960;5.500;2023-04-27T00:17:37;101073.19;;;4.62
59339;BMP280;45117;50.960;5.500;2023-04-27T00:20:04;101080.34;;;4.58
59339;BMP280;45117;50.960;5.500;2023-04-27T00:22:34;101086.16;;;4.48
59339;BMP280;45117;50.960;5.500;2023-04-27T00:25:00;101096.31;;;4.46
59339;BMP280;45117;50.960;5.500;2023-04-27T00:27:28;101087.03;;;4.52
59339;BMP280;45117;50.960;5.500;2023-04-27T00:29:55;101088.59;;;4.41
59339;BMP280;45117;50.960;5.500;2023-04-27T00:32:21;101091.94;;;4.38
59339;BMP280;45117;50.960;5.500;2023-04-27T00:34:48;101079.94;;;4.28
59339;BMP280;45117;50.960;5.500;2023-04-27T00:37:14;101087.53;;;4.29
59339;BMP280;45117;50.960;5.500;2023-04-27T00:39:41;101083.41;;;4.16
59339;BMP280;45117;50.960;5.500;2023-04-27T00:42:07;101081.19;;;4.18
59339;BMP280;45117;50.960;5.500;2023-04-27T00:44:39;101075.97;;;4.22
59339;BMP280;45117;50.960;5.500;2023-04-27T00:47:06;101070.19;;;4.20
59339;BMP280;45117;50.960;5.500;2023-04-27T00:49:32;101087.69;;;4.21
59339;BMP280;45117;50.960;5.500;2023-04-27T00:51:59;101086.06;;;4.16
59339;BMP280;45117;50.960;5.500;2023-04-27T00:54:25;101081.94;;;4.19
59339;BMP280;45117;50.960;5.500;2023-04-27T00:56:52;101068.16;;;4.13
59339;BMP280;45117;50.960;5.500;2023-04-27T00:59:19;101069.59;;;4.10
59339;BMP280;45117;50.960;5.500;2023-04-27T01:01:47;101066.41;;;4.05
59339;BMP280;45117;50.960;5.500;2023-04-27T01:04:15;101076.75;;;3.94
59339;BMP280;45117;50.960;5.500;2023-04-27T01:06:42;101073.31;;;3.94
59339;BMP280;45117;50.960;5.500;2023-04-27T01:09:08;101078.19;;;3.92
59339;BMP280;45117;50.960;5.500;2023-04-27T01:11:35;101081.72;;;3.96
59339;BMP280;45117;50.960;5.500;2023-04-27T01:14:03;101081.16;;;3.90
59339;BMP280;45117;50.960;5.500;2023-04-27T01:16:30;101084.72;;;3.82
59339;BMP280;45117;50.960;5.500;2023-04-27T01:18:58;101080.06;;;3.79
59339;BMP280;45117;50.960;5.500;2023-04-27T01:21:25;101082.22;;;3.73
59339;BMP280;45117;50.960;5.500;2023-04-27T01:23:52;101080.69;;;3.72
59339;BMP280;45117;50.960;5.500;2023-04-27T01:26:19;101083.56;;;3.67
59339;BMP280;45117;50.960;5.500;2023-04-27T01:28:46;101085.22;;;3.72
59339;BMP280;45117;50.960;5.500;2023-04-27T01:31:13;101076.69;;;3.66
59339;BMP280;45117;50.960;5.500;2023-04-27T01:33:40;101076.78;;;3.57
59339;BMP280;45117;50.960;5.500;2023-04-27T01:36:08;101078.69;;;3.57
59339;BMP280;45117;50.960;5.500;2023-04-27T01:38:34;101079.25;;;3.50
59339;BMP280;45117;50.960;5.500;2023-04-27T01:41:04;101078.13;;;3.51
59339;BMP280;45117;50.960;5.500;2023-04-27T01:43:33;101077.13;;;3.56
59339;BMP280;45117;50.960;5.500;2023-04-27T01:46:04;101065.53;;;3.61
59339;BMP280;45117;50.960;5.500;2023-04-27T01:48:31;101076.13;;;3.61
59339;BMP280;45117;50.960;5.500;2023-04-27T01:50:58;101071.63;;;3.49
59339;BMP280;45117;50.960;5.500;2023-04-27T01:53:24;101064.44;;;3.49
59339;BMP280;45117;50.960;5.500;2023-04-27T01:55:51;101080.28;;;3.46
59339;BMP280;45117;50.960;5.500;2023-04-27T01:58:19;101070.88;;;3.48
59339;BMP280;45117;50.960;5.500;2023-04-27T02:00:45;101076.72;;;3.42
59339;BMP280;45117;50.960;5.500;2023-04-27T02:03:12;101069.09;;;3.40
59339;BMP280;45117;50.960;5.500;2023-04-27T02:05:38;101067.88;;;3.38
59339;BMP280;45117;50.960;5.500;2023-04-27T02:08:06;101065.53;;;3.36
59339;BMP280;45117;50.960;5.500;2023-04-27T02:10:33;101064.56;;;3.41
59339;BMP280;45117;50.960;5.500;2023-04-27T02:13:00;101060.69;;;3.38
59339;BMP280;45117;50.960;5.500;2023-04-27T02:15:28;101063.66;;;3.37
59339;BMP280;45117;50.960;5.500;2023-04-27T02:17:54;101068.09;;;3.32
59339;BMP280;45117;50.960;5.500;2023-04-27T02:20:21;101070.53;;;3.25
59339;BMP280;45117;50.960;5.500;2023-04-27T02:22:48;101069.00;;;3.24
59339;BMP280;45117;50.960;5.500;2023-04-27T02:25:14;101064.38;;;3.21
59339;BMP280;45117;50.960;5.500;2023-04-27T02:27:41;101060.94;;;3.21
59339;BMP280;45117;50.960;5.500;2023-04-27T02:30:09;101046.56;;;3.22
59339;BMP280;45117;50.960;5.500;2023-04-27T02:32:37;101057.41;;;3.17
59339;BMP280;45117;50.960;5.500;2023-04-27T02:35:06;101053.09;;;3.12
59339;BMP280;45117;50.960;5.500;2023-04-27T02:37:32;101052.63;;;3.10
59339;BMP280;45117;50.960;5.500;2023-04-27T02:39:59;101052.28;;;3.12
59339;BMP280;45117;50.960;5.500;2023-04-27T02:42:26;101049.63;;;3.12
59339;BMP280;45117;50.960;5.500;2023-04-27T02:44:52;101051.09;;;3.09
59339;BMP280;45117;50.960;5.500;2023-04-27T02:47:19;101053.09;;;3.12
59339;BMP280;45117;50.960;5.500;2023-04-27T02:49:47;101061.69;;;3.09
59339;BMP280;45117;50.960;5.500;2023-04-27T02:52:14;101062.59;;;3.13
59339;BMP280;45117;50.960;5.500;2023-04-27T02:54:41;101054.72;;;3.04
59339;BMP280;45117;50.960;5.500;2023-04-27T02:57:07;101059.81;;;3.10
59339;BMP280;45117;50.960;5.500;2023-04-27T02:59:34;101058.91;;;3.05
59339;BMP280;45117;50.960;5.500;2023-04-27T03:02:00;101052.97;;;3.09
59339;BMP280;45117;50.960;5.500;2023-04-27T03:04:27;101052.19;;;3.08
59339;BMP280;45117;50.960;5.500;2023-04-27T03:06:55;101056.16;;;3.02
59339;BMP280;45117;50.960;5.500;2023-04-27T03:09:21;101059.56;;;3.02
59339;BMP280;45117;50.960;5.500;2023-04-27T03:11:48;101056.28;;;3.05
59339;BMP280;45117;50.960;5.500;2023-04-27T03:14:14;101057.69;;;3.03
59339;BMP280;45117;50.960;5.500;2023-04-27T03:16:41;101055.03;;;3.03
59339;BMP280;45117;50.960;5.500;2023-04-27T03:19:07;101063.88;;;2.95
59339;BMP280;45117;50.960;5.500;2023-04-27T03:21:34;101047.00;;;2.87
59339;BMP280;45117;50.960;5.500;2023-04-27T03:24:03;101061.31;;;2.86
59339;BMP280;45117;50.960;5.500;2023-04-27T03:26:30;101065.09;;;2.85
59339;BMP280;45117;50.960;5.500;2023-04-27T03:28:57;101046.88;;;2.84
59339;BMP280;45117;50.960;5.500;2023-04-27T03:31:23;101052.06;;;2.80
59339;BMP280;45117;50.960;5.500;2023-04-27T03:33:50;101054.38;;;2.82
59339;BMP280;45117;50.960;5.500;2023-04-27T03:36:16;101052.69;;;2.77
59339;BMP280;45117;50.960;5.500;2023-04-27T03:38:43;101046.19;;;2.74
59339;BMP280;45117;50.960;5.500;2023-04-27T03:41:11;101052.47;;;2.70
59339;BMP280;45117;50.960;5.500;2023-04-27T03:43:37;101061.75;;;2.76
59339;BMP280;45117;50.960;5.500;2023-04-27T03:46:04;101063.06;;;2.70
59339;BMP280;45117;50.960;5.500;2023-04-27T03:48:30;101063.16;;;2.73
59339;BMP280;45117;50.960;5.500;2023-04-27T03:50:57;101067.69;;;2.73
59339;BMP280;45117;50.960;5.500;2023-04-27T03:53:25;101068.59;;;2.65
59339;BMP280;45117;50.960;5.500;2023-04-27T03:55:51;101069.69;;;2.64
59339;BMP280;45117;50.960;5.500;2023-04-27T03:58:19;101069.91;;;2.59
59339;BMP280;45117;50.960;5.500;2023-04-27T04:00:46;101071.00;;;2.58
59339;BMP280;45117;50.960;5.500;2023-04-27T04:03:12;101070.75;;;2.50
59339;BMP280;45117;50.960;5.500;2023-04-27T04:05:39;101074.63;;;2.53
59339;BMP280;45117;50.960;5.500;2023-04-27T04:08:05;101079.03;;;2.49
59339;BMP280;45117;50.960;5.500;2023-04-27T04:10:32;101084.50;;;2.44
59339;BMP280;45117;50.960;5.500;2023-04-27T04:12:58;101080.78;;;2.45
59339;BMP280;45117;50.960;5.500;2023-04-27T04:15:26;101073.28;;;2.47
59339;BMP280;45117;50.960;5.500;2023-04-27T04:17:53;101075.59;;;2.48
59339;BMP280;45117;50.960;5.500;2023-04-27T04:20:19;101076.25;;;2.45
59339;BMP280;45117;50.960;5.500;2023-04-27T04:22:46;101078.56;;;2.47
59339;BMP280;45117;50.960;5.500;2023-04-27T04:25:13;101084.63;;;2.47
59339;BMP280;45117;50.960;5.500;2023-04-27T04:27:39;101088.06;;;2.48
59339;BMP280;45117;50.960;5.500;2023-04-27T04:30:07;101090.53;;;2.53
59339;BMP280;45117;50.960;5.500;2023-04-27T04:32:35;101087.88;;;2.53
59339;BMP280;45117;50.960;5.500;2023-04-27T04:35:03;101080.94;;;2.61
59339;BMP280;45117;50.960;5.500;2023-04-27T04:37:32;101078.28;;;2.61
59339;BMP280;45117;50.960;5.500;2023-04-27T04:39:58;101080.63;;;2.62
59339;BMP280;45117;50.960;5.500;2023-04-27T04:42:25;101074.63;;;2.65
59339;BMP280;45117;50.960;5.500;2023-04-27T04:44:51;101080.19;;;2.72
59339;BMP280;45117;50.960;5.500;2023-04-27T04:47:18;101084.38;;;2.73
59339;BMP280;45117;50.960;5.500;2023-04-27T04:49:46;101088.03;;;2.81
59339;BMP280;45117;50.960;5.500;2023-04-27T04:52:12;101090.06;;;2.84
59339;BMP280;45117;50.960;5.500;2023-04-27T04:54:39;101085.97;;;2.87
59339;BMP280;45117;50.960;5.500;2023-04-27T04:57:05;101088.53;;;2.95
59339;BMP280;45117;50.960;5.500;2023-04-27T04:59:32;101091.38;;;3.02
59339;BMP280;45117;50.960;5.500;2023-04-27T05:01:59;101094.72;;;3.12
59339;BMP280;45117;50.960;5.500;2023-04-27T05:04:25;101107.00;;;3.16
59339;BMP280;45117;50.960;5.500;2023-04-27T05:06:53;101105.00;;;3.25
59339;BMP280;45117;50.960;5.500;2023-04-27T05:09:20;101123.06;;;4.97
59339;BMP280;45117;50.960;5.500;2023-04-27T05:11:46;101120.59;;;6.52
59339;BMP280;45117;50.960;5.500;2023-04-27T05:14:13;101124.44;;;7.53
59339;BMP280;45117;50.960;5.500;2023-04-27T05:16:40;101126.03;;;8.25
59339;BMP280;45117;50.960;5.500;2023-04-27T05:19:06;101136.94;;;8.90
59339;BMP280;45117;50.960;5.500;2023-04-27T05:21:33;101125.13;;;9.64
59339;BMP280;45117;50.960;5.500;2023-04-27T05:24:01;101133.28;;;10.07
59339;BMP280;45117;50.960;5.500;2023-04-27T05:26:28;101124.13;;;10.86
59339;BMP280;45117;50.960;5.500;2023-04-27T05:28:54;101132.50;;;9.96
59339;BMP280;45117;50.960;5.500;2023-04-27T05:31:21;101136.38;;;10.23
59339;BMP280;45117;50.960;5.500;2023-04-27T05:33:47;101139.41;;;11.18
59339;BMP280;45117;50.960;5.500;2023-04-27T05:36:14;101132.81;;;11.40
59339;BMP280;45117;50.960;5.500;2023-04-27T05:38:40;101137.91;;;11.94
59339;BMP280;45117;50.960;5.500;2023-04-27T05:41:08;101138.97;;;13.31
59339;BMP280;45117;50.960;5.500;2023-04-27T05:43:35;101137.59;;;13.15
59339;BMP280;45117;50.960;5.500;2023-04-27T05:46:03;101137.41;;;12.99
59339;BMP280;45117;50.960;5.500;2023-04-27T05:48:29;101149.09;;;14.07
59339;BMP280;45117;50.960;5.500;2023-04-27T05:50:59;101147.66;;;14.26
59339;BMP280;45117;50.960;5.500;2023-04-27T05:53:27;101146.66;;;15.03
59339;BMP280;45117;50.960;5.500;2023-04-27T05:55:53;101140.59;;;14.32
59339;BMP280;45117;50.960;5.500;2023-04-27T05:58:22;101131.50;;;15.25
59339;BMP280;45117;50.960;5.500;2023-04-27T06:00:48;101135.19;;;15.84
59339;BMP280;45117;50.960;5.500;2023-04-27T06:03:15;101130.91;;;15.86
59339;BMP280;45117;50.960;5.500;2023-04-27T06:05:41;101135.28;;;15.48
59339;BMP280;45117;50.960;5.500;2023-04-27T06:08:08;101136.78;;;16.59
59339;BMP280;45117;50.960;5.500;2023-04-27T06:10:35;101130.16;;;16.89
59339;BMP280;45117;50.960;5.500;2023-04-27T06:13:01;101133.34;;;16.13
59339;BMP280;45117;50.960;5.500;2023-04-27T06:15:29;101129.09;;;15.11
59339;BMP280;45117;50.960;5.500;2023-04-27T06:17:55;101125.22;;;16.13
59339;BMP280;45117;50.960;5.500;2023-04-27T06:20:22;101126.19;;;17.19
59339;BMP280;45117;50.960;5.500;2023-04-27T06:22:48;101130.72;;;17.73
59339;BMP280;45117;50.960;5.500;2023-04-27T06:25:15;101135.53;;;17.91
59339;BMP280;45117;50.960;5.500;2023-04-27T06:27:41;101126.34;;;16.74
59339;BMP280;45117;50.960;5.500;2023-04-27T06:30:09;101122.88;;;17.75
59339;BMP280;45117;50.960;5.500;2023-04-27T06:32:37;101125.22;;;17.38
59339;BMP280;45117;50.960;5.500;2023-04-27T06:35:04;101133.66;;;19.10
59339;BMP280;45117;50.960;5.500;2023-04-27T06:37:30;101125.22;;;17.38
59339;BMP280;45117;50.960;5.500;2023-04-27T06:39:57;101133.41;;;16.55
59339;BMP280;45117;50.960;5.500;2023-04-27T06:42:23;101124.63;;;16.51
59339;BMP280;45117;50.960;5.500;2023-04-27T06:44:52;101128.72;;;17.86
59339;BMP280;45117;50.960;5.500;2023-04-27T06:47:19;101129.38;;;17.77
59339;BMP280;45117;50.960;5.500;2023-04-27T06:49:46;101132.78;;;17.18
59339;BMP280;45117;50.960;5.500;2023-04-27T06:52:13;101124.78;;;16.44
59339;BMP280;45117;50.960;5.500;2023-04-27T06:54:40;101130.88;;;16.90
59339;BMP280;45117;50.960;5.500;2023-04-27T06:57:06;101138.03;;;16.42
59339;BMP280;45117;50.960;5.500;2023-04-27T06:59:33;101139.25;;;16.53
59339;BMP280;45117;50.960;5.500;2023-04-27T07:01:59;101134.84;;;14.93
59339;BMP280;45117;50.960;5.500;2023-04-27T07:04:26;101135.50;;;14.58
59339;BMP280;45117;50.960;5.500;2023-04-27T07:06:54;101125.94;;;15.13
59339;BMP280;45117;50.960;5.500;2023-04-27T07:09:20;101127.00;;;16.04
59339;BMP280;45117;50.960;5.500;2023-04-27T07:11:47;101131.06;;;16.12
59339;BMP280;45117;50.960;5.500;2023-04-27T07:14:13;101130.47;;;15.55
59339;BMP280;45117;50.960;5.500;2023-04-27T07:16:40;101135.63;;;14.04
59339;BMP280;45117;50.960;5.500;2023-04-27T07:19:08;101133.16;;;14.99
59339;BMP280;45117;50.960;5.500;2023-04-27T07:21:34;101139.06;;;14.75
59339;BMP280;45117;50.960;5.500;2023-04-27T07:24:02;101145.72;;;14.70
59339;BMP280;45117;50.960;5.500;2023-04-27T07:26:29;101142.31;;;14.66
59339;BMP280;45117;50.960;5.500;2023-04-27T07:28:57;101140.94;;;14.34
59339;BMP280;45117;50.960;5.500;2023-04-27T07:31:23;101137.63;;;14.00
59339;BMP280;45117;50.960;5.500;2023-04-27T07:33:50;101136.31;;;13.84
59339;BMP280;45117;50.960;5.500;2023-04-27T07:36:17;101137.34;;;14.84
59339;BMP280;45117;50.960;5.500;2023-04-27T07:38:43;101140.19;;;13.83
59339;BMP280;45117;50.960;5.500;2023-04-27T07:41:11;101131.47;;;13.72
59339;BMP280;45117;50.960;5.500;2023-04-27T07:43:38;101128.78;;;13.45
59339;BMP280;45117;50.960;5.500;2023-04-27T07:46:06;101115.50;;;13.28
59339;BMP280;45117;50.960;5.500;2023-04-27T07:48:32;101128.78;;;13.45
59339;BMP280;45117;50.960;5.500;2023-04-27T07:50:59;101127.81;;;12.94
59339;BMP280;45117;50.960;5.500;2023-04-27T07:53:25;101123.25;;;13.26
59339;BMP280;45117;50.960;5.500;2023-04-27T07:55:52;101122.59;;;13.14
59339;BMP280;45117;50.960;5.500;2023-04-27T07:58:20;101119.53;;;13.12
59339;BMP280;45117;50.960;5.500;2023-04-27T08:00:46;101128.22;;;13.84
59339;BMP280;45117;50.960;5.500;2023-04-27T08:03:13;101127.84;;;14.33
59339;BMP280;45117;50.960;5.500;2023-04-27T08:05:39;101117.59;;;14.01
59339;BMP280;45117;50.960;5.500;2023-04-27T08:08:06;101123.56;;;13.89
59339;BMP280;45117;50.960;5.500;2023-04-27T08:10:32;101113.56;;;14.56
59339;BMP280;45117;50.960;5.500;2023-04-27T08:12:59;101119.34;;;14.34
59339;BMP280;45117;50.960;5.500;2023-04-27T08:15:27;101104.41;;;15.78
59339;BMP280;45117;50.960;5.500;2023-04-27T08:17:53;101122.00;;;14.58
59339;BMP280;45117;50.960;5.500;2023-04-27T08:20:20;101112.25;;;14.64
59339;BMP280;45117;50.960;5.500;2023-04-27T08:22:49;101114.28;;;14.13
59339;BMP280;45117;50.960;5.500;2023-04-27T08:25:16;101113.41;;;14.43
59339;BMP280;45117;50.960;5.500;2023-04-27T08:27:42;101113.06;;;15.00
59339;BMP280;45117;50.960;5.500;2023-04-27T08:30:10;101110.66;;;16.07
59339;BMP280;45117;50.960;5.500;2023-04-27T08:32:38;101107.09;;;14.69
59339;BMP280;45117;50.960;5.500;2023-04-27T08:35:05;101109.72;;;14.53
59339;BMP280;45117;50.960;5.500;2023-04-27T08:37:32;101111.88;;;14.19
59339;BMP280;45117;50.960;5.500;2023-04-27T08:39:58;101112.38;;;14.77
59339;BMP280;45117;50.960;5.500;2023-04-27T08:42:25;101096.47;;;15.18
59339;BMP280;45117;50.960;5.500;2023-04-27T08:44:51;101100.97;;;16.22
59339;BMP280;45117;50.960;5.500;2023-04-27T08:47:18;101103.31;;;15.59
59339;BMP280;45117;50.960;5.500;2023-04-27T08:49:46;101103.19;;;14.74
59339;BMP280;45117;50.960;5.500;2023-04-27T08:52:13;101098.72;;;15.03
59339;BMP280;45117;50.960;5.500;2023-04-27T08:54:40;101092.94;;;15.01
59339;BMP280;45117;50.960;5.500;2023-04-27T08:57:08;101099.41;;;14.88
59339;BMP280;45117;50.960;5.500;2023-04-27T08:59:36;101098.19;;;14.92
59339;BMP280;45117;50.960;5.500;2023-04-27T09:02:02;101089.03;;;15.22
59339;BMP280;45117;50.960;5.500;2023-04-27T09:04:36;101097.47;;;15.44
59339;BMP280;45117;50.960;5.500;2023-04-27T09:07:10;101087.03;;;15.26
59339;BMP280;45117;50.960;5.500;2023-04-27T09:09:37;101091.63;;;15.46
59339;BMP280;45117;50.960;5.500;2023-04-27T09:12:12;101087.41;;;14.89
59339;BMP280;45117;50.960;5.500;2023-04-27T09:14:39;101097.53;;;14.45
59339;BMP280;45117;50.960;5.500;2023-04-27T09:17:06;101095.38;;;15.16
59339;BMP280;45117;50.960;5.500;2023-04-27T09:19:32;101093.56;;;15.78
59339;BMP280;45117;50.960;5.500;2023-04-27T09:22:03;101109.16;;;14.42
59339;BMP280;45117;50.960;5.500;2023-04-27T09:24:32;101112.09;;;14.51
59339;BMP280;45117;50.960;5.500;2023-04-27T09:26:58;101100.94;;;15.09
59339;BMP280;45117;50.960;5.500;2023-04-27T09:29:35;101093.75;;;15.18
59339;BMP280;45117;50.960;5.500;2023-04-27T09:32:13;101104.28;;;14.57
59339;BMP280;45117;50.960;5.500;2023-04-27T09:34:40;101106.97;;;14.77
59339;BMP280;45117;50.960;5.500;2023-04-27T09:37:08;101103.06;;;14.58
59339;BMP280;45117;50.960;5.500;2023-04-27T09:39:37;101094.66;;;14.56
59339;BMP280;45117;50.960;5.500;2023-04-27T09:42:04;101088.28;;;14.23
59339;BMP280;45117;50.960;5.500;2023-04-27T09:44:31;101086.28;;;14.03
59339;BMP280;45117;50.960;5.500;2023-04-27T09:46:59;101081.88;;;13.90
59339;BMP280;45117;50.960;5.500;2023-04-27T09:49:26;101093.09;;;14.35
59339;BMP280;45117;50.960;5.500;2023-04-27T09:51:54;101082.66;;;14.13
59339;BMP280;45117;50.960;5.500;2023-04-27T09:54:25;101066.28;;;15.03
59339;BMP280;45117;50.960;5.500;2023-04-27T09:57:02;101065.38;;;14.70
59339;BMP280;45117;50.960;5.500;2023-04-27T09:59:42;101076.50;;;15.48
59339;BMP280;45117;50.960;5.500;2023-04-27T10:02:14;101077.00;;;15.43
59339;BMP280;45117;50.960;5.500;2023-04-27T10:04:52;101054.44;;;14.58
59339;BMP280;45117;50.960;5.500;2023-04-27T10:07:25;101072.50;;;15.00
59339;BMP280;45117;50.960;5.500;2023-04-27T10:09:52;101078.41;;;14.95
59339;BMP280;45117;50.960;5.500;2023-04-27T10:12:21;101072.38;;;14.68
59339;BMP280;45117;50.960;5.500;2023-04-27T10:14:52;101072.19;;;14.79
59339;BMP280;45117;50.960;5.500;2023-04-27T10:17:23;101056.88;;;16.06
59339;BMP280;45117;50.960;5.500;2023-04-27T10:19:54;101063.59;;;14.84
59339;BMP280;45117;50.960;5.500;2023-04-27T10:22:21;101070.94;;;14.63
59339;BMP280;45117;50.960;5.500;2023-04-27T10:24:49;101074.44;;;15.00
59339;BMP280;45117;50.960;5.500;2023-04-27T10:27:20;101072.06;;;14.86
59339;BMP280;45117;50.960;5.500;2023-04-27T10:29:49;101069.78;;;15.20
59339;BMP280;45117;50.960;5.500;2023-04-27T10:32:20;101062.97;;;15.48
59339;BMP280;45117;50.960;5.500;2023-04-27T10:34:47;101072.56;;;15.98
59339;BMP280;45117;50.960;5.500;2023-04-27T10:37:15;101063.25;;;15.18
59339;BMP280;45117;50.960;5.500;2023-04-27T10:39:42;101065.28;;;15.30
59339;BMP280;45117;50.960;5.500;2023-04-27T10:42:09;101059.09;;;16.40
59339;BMP280;45117;50.960;5.500;2023-04-27T10:44:38;101056.28;;;16.14
59339;BMP280;45117;50.960;5.500;2023-04-27T10:47:15;101050.88;;;15.69
59339;BMP280;45117;50.960;5.500;2023-04-27T10:49:44;101042.38;;;16.00
59339;BMP280;45117;50.960;5.500;2023-04-27T10:52:10;101045.00;;;15.22
59339;BMP280;45117;50.960;5.500;2023-04-27T10:54:37;101039.63;;;15.54
59339;BMP280;45117;50.960;5.500;2023-04-27T10:57:05;101026.44;;;15.40
59339;BMP280;45117;50.960;5.500;2023-04-27T10:59:33;101021.94;;;15.82
59339;BMP280;45117;50.960;5.500;2023-04-27T11:02:01;101026.00;;;15.42
59339;BMP280;45117;50.960;5.500;2023-04-27T11:04:35;101026.09;;;15.54
59339;BMP280;45117;50.960;5.500;2023-04-27T11:07:04;101021.34;;;15.42
59339;BMP280;45117;50.960;5.500;2023-04-27T11:09:33;101029.97;;;15.37
59339;BMP280;45117;50.960;5.500;2023-04-27T11:12:00;101012.06;;;16.05
59339;BMP280;45117;50.960;5.500;2023-04-27T11:14:26;101013.84;;;16.24
59339;BMP280;45117;50.960;5.500;2023-04-27T11:16:53;101006.88;;;16.23
59339;BMP280;45117;50.960;5.500;2023-04-27T11:19:20;101015.00;;;15.65
59339;BMP280;45117;50.960;5.500;2023-04-27T11:21:47;101004.56;;;15.80
59339;BMP280;45117;50.960;5.500;2023-04-27T11:24:13;101000.72;;;15.65
59339;BMP280;45117;50.960;5.500;2023-04-27T11:26:40;100995.94;;;15.69
59339;BMP280;45117;50.960;5.500;2023-04-27T11:29:08;101005.78;;;16.08
59339;BMP280;45117;50.960;5.500;2023-04-27T11:31:39;100997.22;;;16.09
59339;BMP280;45117;50.960;5.500;2023-04-27T11:34:06;100997.06;;;16.00
59339;BMP280;45117;50.960;5.500;2023-04-27T11:36:34;100993.69;;;15.96
59339;BMP280;45117;50.960;5.500;2023-04-27T11:39:00;100992.34;;;16.04
59339;BMP280;45117;50.960;5.500;2023-04-27T11:41:34;100993.50;;;16.32
59339;BMP280;45117;50.960;5.500;2023-04-27T11:44:05;100998.06;;;16.06
59339;BMP280;45117;50.960;5.500;2023-04-27T11:46:33;100988.88;;;16.16
59339;BMP280;45117;50.960;5.500;2023-04-27T11:49:02;100988.69;;;15.82
59339;BMP280;45117;50.960;5.500;2023-04-27T11:51:29;100986.94;;;16.71
59339;BMP280;45117;50.960;5.500;2023-04-27T11:54:01;100990.16;;;16.41
59339;BMP280;45117;50.960;5.500;2023-04-27T11:56:35;100996.84;;;15.94
59339;BMP280;45117;50.960;5.500;2023-04-27T11:59:02;100995.53;;;15.70
59339;BMP280;45117;50.960;5.500;2023-04-27T12:01:29;100987.44;;;16.41
59339;BMP280;45117;50.960;5.500;2023-04-27T12:03:56;100975.31;;;16.45
59339;BMP280;45117;50.960;5.500;2023-04-27T12:06:23;100975.56;;;15.64
59339;BMP280;45117;50.960;5.500;2023-04-27T12:08:50;100975.16;;;16.23
59339;BMP280;45117;50.960;5.500;2023-04-27T12:11:18;100978.22;;;15.97
59339;BMP280;45117;50.960;5.500;2023-04-27T12:13:45;100986.88;;;15.91
59339;BMP280;45117;50.960;5.500;2023-04-27T12:16:12;100983.66;;;16.51
59339;BMP280;45117;50.960;5.500;2023-04-27T12:18:39;100987.84;;;16.27
59339;BMP280;45117;50.960;5.500;2023-04-27T12:21:05;100987.13;;;16.64
59339;BMP280;45117;50.960;5.500;2023-04-27T12:23:32;100987.34;;;16.44
59339;BMP280;45117;50.960;5.500;2023-04-27T12:25:58;100989.63;;;16.46
59339;BMP280;45117;50.960;5.500;2023-04-27T12:28:26;100984.00;;;16.53
59339;BMP280;45117;50.960;5.500;2023-04-27T12:30:53;100978.81;;;16.71
59339;BMP280;45117;50.960;5.500;2023-04-27T12:33:20;100972.09;;;16.21
59339;BMP280;45117;50.960;5.500;2023-04-27T12:35:46;100974.47;;;16.61
59339;BMP280;45117;50.960;5.500;2023-04-27T12:38:13;100961.66;;;16.36
59339;BMP280;45117;50.960;5.500;2023-04-27T12:40:39;100958.84;;;17.03
59339;BMP280;45117;50.960;5.500;2023-04-27T12:43:07;100952.88;;;16.70
59339;BMP280;45117;50.960;5.500;2023-04-27T12:45:35;100947.88;;;16.81
59339;BMP280;45117;50.960;5.500;2023-04-27T12:48:01;100947.66;;;16.89
59339;BMP280;45117;50.960;5.500;2023-04-27T12:50:29;100951.31;;;16.69
59339;BMP280;45117;50.960;5.500;2023-04-27T12:52:55;100957.56;;;16.82
59339;BMP280;45117;50.960;5.500;2023-04-27T12:55:22;100946.22;;;17.09
59339;BMP280;45117;50.960;5.500;2023-04-27T12:57:48;100944.94;;;17.36
59339;BMP280;45117;50.960;5.500;2023-04-27T13:00:15;100946.03;;;17.04
59339;BMP280;45117;50.960;5.500;2023-04-27T13:02:43;100952.97;;;17.05
59339;BMP280;45117;50.960;5.500;2023-04-27T13:05:10;100950.00;;;17.59
59339;BMP280;45117;50.960;5.500;2023-04-27T13:07:36;100952.50;;;17.19
59339;BMP280;45117;50.960;5.500;2023-04-27T13:10:04;100943.44;;;17.91
59339;BMP280;45117;50.960;5.500;2023-04-27T13:12:30;100943.88;;;17.33
59339;BMP280;45117;50.960;5.500;2023-04-27T13:14:57;100937.56;;;17.36
59339;BMP280;45117;50.960;5.500;2023-04-27T13:17:24;100932.59;;;17.35
59339;BMP280;45117;50.960;5.500;2023-04-27T13:19:52;100932.22;;;17.45
59339;BMP280;45117;50.960;5.500;2023-04-27T13:22:18;100932.41;;;17.51
59339;BMP280;45117;50.960;5.500;2023-04-27T13:24:45;100931.75;;;17.60
59339;BMP280;45117;50.960;5.500;2023-04-27T13:27:12;100931.91;;;17.43
59339;BMP280;45117;50.960;5.500;2023-04-27T13:29:38;100928.31;;;17.12
59339;BMP280;45117;50.960;5.500;2023-04-27T13:32:05;100916.97;;;17.26
59339;BMP280;45117;50.960;5.500;2023-04-27T13:34:31;100928.06;;;17.19
59339;BMP280;45117;50.960;5.500;2023-04-27T13:37:00;100923.97;;;17.02
59339;BMP280;45117;50.960;5.500;2023-04-27T13:39:26;100919.97;;;17.41
59339;BMP280;45117;50.960;5.500;2023-04-27T13:41:53;100917.72;;;16.79
59339;BMP280;45117;50.960;5.500;2023-04-27T13:44:19;100912.84;;;16.74
59339;BMP280;45117;50.960;5.500;2023-04-27T13:46:46;100904.50;;;17.29
59339;BMP280;45117;50.960;5.500;2023-04-27T13:49:12;100899.56;;;17.80
59339;BMP280;45117;50.960;5.500;2023-04-27T13:51:39;100895.03;;;17.55
59339;BMP280;45117;50.960;5.500;2023-04-27T13:54:07;100888.56;;;17.18
59339;BMP280;45117;50.960;5.500;2023-04-27T13:56:33;100890.38;;;16.99
59339;BMP280;45117;50.960;5.500;2023-04-27T13:59:00;100901.34;;;17.52
59339;BMP280;45117;50.960;5.500;2023-04-27T14:01:27;100887.19;;;17.57